sensor_id;sensor_type;location;lat;lon;timestamp;pressure;altitude;pressure_sealevel;temperature
12007;BMP180;6062;47.294;12.182;2022-12-08T00:01:15;79307.00;;;-3.60
12007;BMP180;6062;47.294;12.182;2022-12-08T00:03:42;79301.00;;;-3.50
12007;BMP180;6062;47.294;12.182;2022-12-08T00:06:22;79295.00;;;-3.50
12007;BMP180;6062;47.294;12.182;2022-12-08T00:09:25;79301.00;;;-3.50
12007;BMP180;6062;47.294;12.182;2022-12-08T00:12:11;79293.00;;;-3.40
12007;BMP180;6062;47.294;12.182;2022-12-08T00:14:42;79295.00;;;-3.40
12007;BMP180;6062;47.294;12.182;2022-12-08T00:17:11;79297.00;;;-3.30
12007;BMP180;6062;47.294;12.182;2022-12-08T00:19:39;79289.00;;;-3.30
12007;BMP180;6062;47.294;12.182;2022-12-08T00:22:09;79292.00;;;-3.20
12007;BMP180;6062;47.294;12.182;2022-12-08T00:24:37;79287.00;;;-3.20
12007;BMP180;6062;47.294;12.182;2022-12-08T00:27:05;79286.00;;;-3.20
12007;BMP180;6062;47.294;12.182;2022-12-08T00:29:31;79295.00;;;-3.10
12007;BMP180;6062;47.294;12.182;2022-12-08T00:31:57;79284.00;;;-3.10
12007;BMP180;6062;47.294;12.182;2022-12-08T00:34:22;79287.00;;;-3.00
12007;BMP180;6062;47.294;12.182;2022-12-08T00:36:48;79284.00;;;-3.00
12007;BMP180;6062;47.294;12.182;2022-12-08T00:39:16;79282.00;;;-2.90
12007;BMP180;6062;47.294;12.182;2022-12-08T00:41:41;79280.00;;;-2.90
12007;BMP180;6062;47.294;12.182;2022-12-08T00:44:25;79285.00;;;-2.90
12007;BMP180;6062;47.294;12.182;2022-12-08T00:46:51;79289.00;;;-2.80
12007;BMP180;6062;47.294;12.182;2022-12-08T00:49:17;79277.00;;;-2.80
12007;BMP180;6062;47.294;12.182;2022-12-08T00:51:43;79279.00;;;-2.80
12007;BMP180;6062;47.294;12.182;2022-12-08T00:54:10;79282.00;;;-2.70
12007;BMP180;6062;47.294;12.182;2022-12-08T00:56:36;79277.00;;;-2.70
12007;BMP180;6062;47.294;12.182;2022-12-08T00:59:04;79272.00;;;-2.70
12007;BMP180;6062;47.294;12.182;2022-12-08T01:01:30;79282.00;;;-2.60
12007;BMP180;6062;47.294;12.182;2022-12-08T01:03:56;79272.00;;;-2.60
12007;BMP180;6062;47.294;12.182;2022-12-08T01:06:22;79277.00;;;-2.60
12007;BMP180;6062;47.294;12.182;2022-12-08T01:08:47;79271.00;;;-2.60
12007;BMP180;6062;47.294;12.182;2022-12-08T01:11:16;79269.00;;;-2.50
12007;BMP180;6062;47.294;12.182;2022-12-08T01:13:43;79267.00;;;-2.50
12007;BMP180;6062;47.294;12.182;2022-12-08T01:16:18;79282.00;;;-2.40
12007;BMP180;6062;47.294;12.182;2022-12-08T01:18:43;79277.00;;;-2.40
12007;BMP180;6062;47.294;12.182;2022-12-08T01:21:09;79273.00;;;-2.40
12007;BMP180;6062;47.294;12.182;2022-12-08T01:23:35;79277.00;;;-2.40
12007;BMP180;6062;47.294;12.182;2022-12-08T01:26:03;79280.00;;;-2.40
12007;BMP180;6062;47.294;12.182;2022-12-08T01:28:30;79268.00;;;-2.40
12007;BMP180;6062;47.294;12.182;2022-12-08T01:30:57;79272.00;;;-2.40
12007;BMP180;6062;47.294;12.182;2022-12-08T01:33:23;79265.00;;;-2.40
12007;BMP180;6062;47.294;12.182;2022-12-08T01:35:49;79261.00;;;-2.40
12007;BMP180;6062;47.294;12.182;2022-12-08T01:38:14;79261.00;;;-2.40
12007;BMP180;6062;47.294;12.182;2022-12-08T01:40:40;79254.00;;;-2.40
12007;BMP180;6062;47.294;12.182;2022-12-08T01:43:14;79255.00;;;-2.40
12007;BMP180;6062;47.294;12.182;2022-12-08T01:45:41;79250.00;;;-2.40
12007;BMP180;6062;47.294;12.182;2022-12-08T01:48:23;79258.00;;;-2.50
12007;BMP180;6062;47.294;12.182;2022-12-08T01:50:52;79236.00;;;-2.50
12007;BMP180;6062;47.294;12.182;2022-12-08T01:53:31;79246.00;;;-2.50
12007;BMP180;6062;47.294;12.182;2022-12-08T01:56:08;79241.00;;;-2.50
12007;BMP180;6062;47.294;12.182;2022-12-08T01:58:42;79237.00;;;-2.50
12007;BMP180;6062;47.294;12.182;2022-12-08T02:01:10;79239.00;;;-2.50
12007;BMP180;6062;47.294;12.182;2022-12-08T02:03:44;79233.00;;;-2.50
12007;BMP180;6062;47.294;12.182;2022-12-08T02:06:12;79243.00;;;-2.40
12007;BMP180;6062;47.294;12.182;2022-12-08T02:08:41;79238.00;;;-2.40
12007;BMP180;6062;47.294;12.182;2022-12-08T02:11:11;79237.00;;;-2.30
12007;BMP180;6062;47.294;12.182;2022-12-08T02:13:39;79236.00;;;-2.30
12007;BMP180;6062;47.294;12.182;2022-12-08T02:24:46;79234.00;;;-2.10
12007;BMP180;6062;47.294;12.182;2022-12-08T02:36:03;79235.00;;;-2.20
12007;BMP180;6062;47.294;12.182;2022-12-08T02:41:47;79227.00;;;-2.20
12007;BMP180;6062;47.294;12.182;2022-12-08T02:44:38;79231.00;;;-2.20
12007;BMP180;6062;47.294;12.182;2022-12-08T02:47:13;79235.00;;;-2.30
12007;BMP180;6062;47.294;12.182;2022-12-08T02:49:41;79227.00;;;-2.30
12007;BMP180;6062;47.294;12.182;2022-12-08T02:54:44;79219.00;;;-2.30
12007;BMP180;6062;47.294;12.182;2022-12-08T03:00:13;79212.00;;;-2.30
12007;BMP180;6062;47.294;12.182;2022-12-08T03:03:08;79211.00;;;-2.30
12007;BMP180;6062;47.294;12.182;2022-12-08T03:06:23;79216.00;;;-2.30
12007;BMP180;6062;47.294;12.182;2022-12-08T03:09:37;79213.00;;;-2.30
12007;BMP180;6062;47.294;12.182;2022-12-08T03:12:03;79220.00;;;-2.30
12007;BMP180;6062;47.294;12.182;2022-12-08T03:14:32;79202.00;;;-2.30
12007;BMP180;6062;47.294;12.182;2022-12-08T03:17:00;79204.00;;;-2.30
12007;BMP180;6062;47.294;12.182;2022-12-08T03:19:32;79195.00;;;-2.30
12007;BMP180;6062;47.294;12.182;2022-12-08T03:22:01;79186.00;;;-2.30
12007;BMP180;6062;47.294;12.182;2022-12-08T03:24:37;79192.00;;;-2.30
12007;BMP180;6062;47.294;12.182;2022-12-08T03:27:10;79209.00;;;-2.40
12007;BMP180;6062;47.294;12.182;2022-12-08T03:29:36;79196.00;;;-2.40
12007;BMP180;6062;47.294;12.182;2022-12-08T03:32:34;79191.00;;;-2.40
12007;BMP180;6062;47.294;12.182;2022-12-08T03:35:13;79190.00;;;-2.40
12007;BMP180;6062;47.294;12.182;2022-12-08T03:37:40;79188.00;;;-2.50
12007;BMP180;6062;47.294;12.182;2022-12-08T03:40:12;79189.00;;;-2.50
12007;BMP180;6062;47.294;12.182;2022-12-08T03:42:39;79184.00;;;-2.50
12007;BMP180;6062;47.294;12.182;2022-12-08T03:45:05;79183.00;;;-2.50
12007;BMP180;6062;47.294;12.182;2022-12-08T03:47:31;79188.00;;;-2.50
12007;BMP180;6062;47.294;12.182;2022-12-08T03:49:57;79189.00;;;-2.50
12007;BMP180;6062;47.294;12.182;2022-12-08T03:52:23;79170.00;;;-2.40
12007;BMP180;6062;47.294;12.182;2022-12-08T03:54:48;79169.00;;;-2.40
12007;BMP180;6062;47.294;12.182;2022-12-08T03:57:14;79176.00;;;-2.30
12007;BMP180;6062;47.294;12.182;2022-12-08T03:59:40;79171.00;;;-2.30
12007;BMP180;6062;47.294;12.182;2022-12-08T04:02:05;79173.00;;;-2.20
12007;BMP180;6062;47.294;12.182;2022-12-08T04:04:31;79176.00;;;-2.20
12007;BMP180;6062;47.294;12.182;2022-12-08T04:06:57;79175.00;;;-2.10
12007;BMP180;6062;47.294;12.182;2022-12-08T04:09:22;79177.00;;;-2.10
12007;BMP180;6062;47.294;12.182;2022-12-08T04:11:48;79163.00;;;-2.10
12007;BMP180;6062;47.294;12.182;2022-12-08T04:14:14;79166.00;;;-2.00
12007;BMP180;6062;47.294;12.182;2022-12-08T04:16:40;79168.00;;;-2.00
12007;BMP180;6062;47.294;12.182;2022-12-08T04:19:05;79165.00;;;-1.90
12007;BMP180;6062;47.294;12.182;2022-12-08T04:21:31;79160.00;;;-1.90
12007;BMP180;6062;47.294;12.182;2022-12-08T04:23:57;79160.00;;;-1.90
12007;BMP180;6062;47.294;12.182;2022-12-08T04:26:22;79150.00;;;-2.00
12007;BMP180;6062;47.294;12.182;2022-12-08T04:28:48;79162.00;;;-1.90
12007;BMP180;6062;47.294;12.182;2022-12-08T04:31:14;79159.00;;;-1.90
12007;BMP180;6062;47.294;12.182;2022-12-08T04:33:39;79160.00;;;-1.90
12007;BMP180;6062;47.294;12.182;2022-12-08T04:36:06;79155.00;;;-1.90
12007;BMP180;6062;47.294;12.182;2022-12-08T04:38:33;79146.00;;;-1.90
12007;BMP180;6062;47.294;12.182;2022-12-08T04:40:59;79145.00;;;-1.90
12007;BMP180;6062;47.294;12.182;2022-12-08T04:43:25;79142.00;;;-1.90
12007;BMP180;6062;47.294;12.182;2022-12-08T04:45:50;79135.00;;;-1.90
12007;BMP180;6062;47.294;12.182;2022-12-08T04:48:16;79150.00;;;-1.90
12007;BMP180;6062;47.294;12.182;2022-12-08T04:50:44;79148.00;;;-1.90
12007;BMP180;6062;47.294;12.182;2022-12-08T04:53:11;79150.00;;;-1.90
12007;BMP180;6062;47.294;12.182;2022-12-08T04:55:40;79147.00;;;-1.90
12007;BMP180;6062;47.294;12.182;2022-12-08T04:58:06;79145.00;;;-1.90
12007;BMP180;6062;47.294;12.182;2022-12-08T05:00:32;79141.00;;;-1.90
12007;BMP180;6062;47.294;12.182;2022-12-08T05:02:58;79135.00;;;-1.90
12007;BMP180;6062;47.294;12.182;2022-12-08T05:05:24;79145.00;;;-1.90
12007;BMP180;6062;47.294;12.182;2022-12-08T05:07:50;79146.00;;;-1.80
12007;BMP180;6062;47.294;12.182;2022-12-08T05:10:16;79149.00;;;-1.80
12007;BMP180;6062;47.294;12.182;2022-12-08T05:12:42;79146.00;;;-1.80
12007;BMP180;6062;47.294;12.182;2022-12-08T05:15:08;79148.00;;;-1.80
12007;BMP180;6062;47.294;12.182;2022-12-08T05:17:34;79152.00;;;-1.70
12007;BMP180;6062;47.294;12.182;2022-12-08T05:19:59;79148.00;;;-1.70
12007;BMP180;6062;47.294;12.182;2022-12-08T05:22:25;79140.00;;;-1.70
12007;BMP180;6062;47.294;12.182;2022-12-08T05:24:50;79137.00;;;-1.70
12007;BMP180;6062;47.294;12.182;2022-12-08T05:27:16;79130.00;;;-1.80
12007;BMP180;6062;47.294;12.182;2022-12-08T05:29:42;79137.00;;;-1.80
12007;BMP180;6062;47.294;12.182;2022-12-08T05:32:07;79133.00;;;-1.80
12007;BMP180;6062;47.294;12.182;2022-12-08T05:34:33;79141.00;;;-1.80
12007;BMP180;6062;47.294;12.182;2022-12-08T05:36:59;79139.00;;;-1.80
12007;BMP180;6062;47.294;12.182;2022-12-08T05:39:24;79138.00;;;-1.80
12007;BMP180;6062;47.294;12.182;2022-12-08T05:41:50;79126.00;;;-1.80
12007;BMP180;6062;47.294;12.182;2022-12-08T05:44:15;79136.00;;;-1.80
12007;BMP180;6062;47.294;12.182;2022-12-08T05:46:41;79133.00;;;-1.80
12007;BMP180;6062;47.294;12.182;2022-12-08T05:49:07;79136.00;;;-1.90
12007;BMP180;6062;47.294;12.182;2022-12-08T05:51:32;79122.00;;;-1.90
12007;BMP180;6062;47.294;12.182;2022-12-08T05:53:58;79129.00;;;-1.90
12007;BMP180;6062;47.294;12.182;2022-12-08T05:56:24;79132.00;;;-1.90
12007;BMP180;6062;47.294;12.182;2022-12-08T05:58:50;79127.00;;;-1.90
12007;BMP180;6062;47.294;12.182;2022-12-08T06:01:26;79124.00;;;-1.90
12007;BMP180;6062;47.294;12.182;2022-12-08T06:03:53;79123.00;;;-1.90
12007;BMP180;6062;47.294;12.182;2022-12-08T06:06:19;79126.00;;;-1.90
12007;BMP180;6062;47.294;12.182;2022-12-08T06:08:45;79131.00;;;-1.80
12007;BMP180;6062;47.294;12.182;2022-12-08T06:11:37;79130.00;;;-1.90
12007;BMP180;6062;47.294;12.182;2022-12-08T06:14:03;79118.00;;;-1.90
12007;BMP180;6062;47.294;12.182;2022-12-08T06:16:29;79125.00;;;-1.90
12007;BMP180;6062;47.294;12.182;2022-12-08T06:18:56;79122.00;;;-1.90
12007;BMP180;6062;47.294;12.182;2022-12-08T06:21:22;79123.00;;;-2.00
12007;BMP180;6062;47.294;12.182;2022-12-08T06:23:51;79127.00;;;-2.00
12007;BMP180;6062;47.294;12.182;2022-12-08T06:26:17;79122.00;;;-2.00
12007;BMP180;6062;47.294;12.182;2022-12-08T06:28:44;79125.00;;;-2.00
12007;BMP180;6062;47.294;12.182;2022-12-08T06:31:21;79121.00;;;-2.00
12007;BMP180;6062;47.294;12.182;2022-12-08T06:33:47;79119.00;;;-2.00
12007;BMP180;6062;47.294;12.182;2022-12-08T06:36:16;79118.00;;;-2.00
12007;BMP180;6062;47.294;12.182;2022-12-08T06:38:43;79130.00;;;-2.10
12007;BMP180;6062;47.294;12.182;2022-12-08T06:41:09;79123.00;;;-2.10
12007;BMP180;6062;47.294;12.182;2022-12-08T06:43:35;79129.00;;;-2.10
12007;BMP180;6062;47.294;12.182;2022-12-08T06:46:04;79122.00;;;-2.10
12007;BMP180;6062;47.294;12.182;2022-12-08T06:48:30;79132.00;;;-2.20
12007;BMP180;6062;47.294;12.182;2022-12-08T06:50:55;79126.00;;;-2.20
12007;BMP180;6062;47.294;12.182;2022-12-08T06:53:21;79115.00;;;-2.20
12007;BMP180;6062;47.294;12.182;2022-12-08T06:55:52;79129.00;;;-2.20
12007;BMP180;6062;47.294;12.182;2022-12-08T06:58:18;79127.00;;;-2.20
12007;BMP180;6062;47.294;12.182;2022-12-08T07:00:45;79120.00;;;-2.20
12007;BMP180;6062;47.294;12.182;2022-12-08T07:03:11;79128.00;;;-2.20
12007;BMP180;6062;47.294;12.182;2022-12-08T07:05:37;79129.00;;;-2.20
12007;BMP180;6062;47.294;12.182;2022-12-08T07:08:05;79136.00;;;-2.20
12007;BMP180;6062;47.294;12.182;2022-12-08T07:10:32;79135.00;;;-2.10
12007;BMP180;6062;47.294;12.182;2022-12-08T07:12:58;79136.00;;;-2.10
12007;BMP180;6062;47.294;12.182;2022-12-08T07:15:24;79124.00;;;-2.10
12007;BMP180;6062;47.294;12.182;2022-12-08T07:17:50;79138.00;;;-2.10
12007;BMP180;6062;47.294;12.182;2022-12-08T07:20:16;79141.00;;;-2.10
12007;BMP180;6062;47.294;12.182;2022-12-08T07:22:48;79143.00;;;-2.00
12007;BMP180;6062;47.294;12.182;2022-12-08T07:25:15;79138.00;;;-2.00
12007;BMP180;6062;47.294;12.182;2022-12-08T07:27:41;79140.00;;;-2.00
12007;BMP180;6062;47.294;12.182;2022-12-08T07:30:07;79137.00;;;-1.90
12007;BMP180;6062;47.294;12.182;2022-12-08T07:32:33;79142.00;;;-1.80
12007;BMP180;6062;47.294;12.182;2022-12-08T07:34:58;79140.00;;;-1.80
12007;BMP180;6062;47.294;12.182;2022-12-08T07:37:24;79136.00;;;-1.70
12007;BMP180;6062;47.294;12.182;2022-12-08T07:39:49;79150.00;;;-1.70
12007;BMP180;6062;47.294;12.182;2022-12-08T07:42:15;79143.00;;;-1.60
12007;BMP180;6062;47.294;12.182;2022-12-08T07:44:41;79135.00;;;-1.50
12007;BMP180;6062;47.294;12.182;2022-12-08T07:47:06;79132.00;;;-1.50
12007;BMP180;6062;47.294;12.182;2022-12-08T07:49:32;79135.00;;;-1.40
12007;BMP180;6062;47.294;12.182;2022-12-08T07:51:57;79136.00;;;-1.20
12007;BMP180;6062;47.294;12.182;2022-12-08T07:54:23;79137.00;;;-0.80
12007;BMP180;6062;47.294;12.182;2022-12-08T07:56:49;79135.00;;;0.00
12007;BMP180;6062;47.294;12.182;2022-12-08T07:59:14;79154.00;;;1.20
12007;BMP180;6062;47.294;12.182;2022-12-08T08:01:40;79146.00;;;2.70
12007;BMP180;6062;47.294;12.182;2022-12-08T08:04:06;79151.00;;;4.20
12007;BMP180;6062;47.294;12.182;2022-12-08T08:06:33;79158.00;;;5.80
12007;BMP180;6062;47.294;12.182;2022-12-08T08:08:59;79153.00;;;7.30
12007;BMP180;6062;47.294;12.182;2022-12-08T08:11:25;79153.00;;;8.70
12007;BMP180;6062;47.294;12.182;2022-12-08T08:13:52;79152.00;;;10.00
12007;BMP180;6062;47.294;12.182;2022-12-08T08:16:18;79160.00;;;11.20
12007;BMP180;6062;47.294;12.182;2022-12-08T08:18:47;79164.00;;;12.30
12007;BMP180;6062;47.294;12.182;2022-12-08T08:21:14;79167.00;;;13.20
12007;BMP180;6062;47.294;12.182;2022-12-08T08:23:39;79168.00;;;14.20
12007;BMP180;6062;47.294;12.182;2022-12-08T08:26:05;79170.00;;;15.00
12007;BMP180;6062;47.294;12.182;2022-12-08T08:28:32;79174.00;;;15.80
12007;BMP180;6062;47.294;12.182;2022-12-08T08:30:59;79170.00;;;16.40
12007;BMP180;6062;47.294;12.182;2022-12-08T08:33:25;79158.00;;;17.00
12007;BMP180;6062;47.294;12.182;2022-12-08T08:35:53;79168.00;;;17.60
12007;BMP180;6062;47.294;12.182;2022-12-08T08:38:18;79169.00;;;18.10
12007;BMP180;6062;47.294;12.182;2022-12-08T08:40:45;79165.00;;;18.50
12007;BMP180;6062;47.294;12.182;2022-12-08T08:43:10;79171.00;;;18.90
12007;BMP180;6062;47.294;12.182;2022-12-08T08:45:57;79170.00;;;19.20
12007;BMP180;6062;47.294;12.182;2022-12-08T08:48:25;79170.00;;;19.50
12007;BMP180;6062;47.294;12.182;2022-12-08T08:50:52;79176.00;;;19.80
12007;BMP180;6062;47.294;12.182;2022-12-08T08:53:18;79175.00;;;20.20
12007;BMP180;6062;47.294;12.182;2022-12-08T08:55:44;79173.00;;;20.40
12007;BMP180;6062;47.294;12.182;2022-12-08T08:58:09;79178.00;;;20.60
12007;BMP180;6062;47.294;12.182;2022-12-08T09:00:35;79175.00;;;20.90
12007;BMP180;6062;47.294;12.182;2022-12-08T09:03:01;79183.00;;;21.00
12007;BMP180;6062;47.294;12.182;2022-12-08T09:05:26;79186.00;;;21.20
12007;BMP180;6062;47.294;12.182;2022-12-08T09:07:52;79185.00;;;21.40
12007;BMP180;6062;47.294;12.182;2022-12-08T09:10:18;79195.00;;;21.60
12007;BMP180;6062;47.294;12.182;2022-12-08T09:12:43;79187.00;;;21.80
12007;BMP180;6062;47.294;12.182;2022-12-08T09:15:09;79188.00;;;21.90
12007;BMP180;6062;47.294;12.182;2022-12-08T09:17:35;79194.00;;;22.10
12007;BMP180;6062;47.294;12.182;2022-12-08T09:20:01;79192.00;;;22.30
12007;BMP180;6062;47.294;12.182;2022-12-08T09:22:27;79194.00;;;22.60
12007;BMP180;6062;47.294;12.182;2022-12-08T09:24:52;79187.00;;;22.80
12007;BMP180;6062;47.294;12.182;2022-12-08T09:27:18;79182.00;;;23.10
12007;BMP180;6062;47.294;12.182;2022-12-08T09:29:44;79192.00;;;23.30
12007;BMP180;6062;47.294;12.182;2022-12-08T09:32:09;79183.00;;;23.50
12007;BMP180;6062;47.294;12.182;2022-12-08T09:34:35;79185.00;;;23.70
12007;BMP180;6062;47.294;12.182;2022-12-08T09:37:01;79191.00;;;23.90
12007;BMP180;6062;47.294;12.182;2022-12-08T09:39:27;79189.00;;;23.90
12007;BMP180;6062;47.294;12.182;2022-12-08T09:42:00;79184.00;;;24.00
12007;BMP180;6062;47.294;12.182;2022-12-08T09:48:13;79178.00;;;24.10
12007;BMP180;6062;47.294;12.182;2022-12-08T09:50:46;79179.00;;;24.20
12007;BMP180;6062;47.294;12.182;2022-12-08T09:53:38;79173.00;;;24.20
12007;BMP180;6062;47.294;12.182;2022-12-08T09:56:18;79171.00;;;24.20
12007;BMP180;6062;47.294;12.182;2022-12-08T09:58:55;79164.00;;;24.30
12007;BMP180;6062;47.294;12.182;2022-12-08T10:01:27;79165.00;;;24.30
12007;BMP180;6062;47.294;12.182;2022-12-08T10:03:53;79170.00;;;24.40
12007;BMP180;6062;47.294;12.182;2022-12-08T10:09:35;79167.00;;;24.40
12007;BMP180;6062;47.294;12.182;2022-12-08T10:15:21;79163.00;;;24.50
12007;BMP180;6062;47.294;12.182;2022-12-08T10:17:48;79164.00;;;24.50
12007;BMP180;6062;47.294;12.182;2022-12-08T10:20:22;79161.00;;;24.50
12007;BMP180;6062;47.294;12.182;2022-12-08T10:25:45;79151.00;;;24.50
12007;BMP180;6062;47.294;12.182;2022-12-08T10:28:12;79158.00;;;24.40
12007;BMP180;6062;47.294;12.182;2022-12-08T10:30:38;79155.00;;;24.30
12007;BMP180;6062;47.294;12.182;2022-12-08T10:33:10;79152.00;;;24.30
12007;BMP180;6062;47.294;12.182;2022-12-08T10:35:54;79145.00;;;24.30
12007;BMP180;6062;47.294;12.182;2022-12-08T10:38:32;79145.00;;;24.30
12007;BMP180;6062;47.294;12.182;2022-12-08T10:41:08;79149.00;;;24.30
12007;BMP180;6062;47.294;12.182;2022-12-08T10:43:47;79142.00;;;24.30
12007;BMP180;6062;47.294;12.182;2022-12-08T10:46:20;79146.00;;;24.30
12007;BMP180;6062;47.294;12.182;2022-12-08T10:53:58;79143.00;;;24.30
12007;BMP180;6062;47.294;12.182;2022-12-08T10:56:29;79135.00;;;24.40
12007;BMP180;6062;47.294;12.182;2022-12-08T10:59:18;79137.00;;;24.40
12007;BMP180;6062;47.294;12.182;2022-12-08T11:01:50;79131.00;;;24.50
12007;BMP180;6062;47.294;12.182;2022-12-08T11:04:35;79134.00;;;24.60
12007;BMP180;6062;47.294;12.182;2022-12-08T11:07:04;79131.00;;;24.60
12007;BMP180;6062;47.294;12.182;2022-12-08T11:12:06;79131.00;;;24.60
12007;BMP180;6062;47.294;12.182;2022-12-08T11:14:53;79124.00;;;24.50
12007;BMP180;6062;47.294;12.182;2022-12-08T11:22:54;79120.00;;;24.40
12007;BMP180;6062;47.294;12.182;2022-12-08T11:25:26;79121.00;;;24.50
12007;BMP180;6062;47.294;12.182;2022-12-08T11:28:00;79112.00;;;24.50
12007;BMP180;6062;47.294;12.182;2022-12-08T11:30:37;79118.00;;;24.50
12007;BMP180;6062;47.294;12.182;2022-12-08T11:33:20;79117.00;;;24.60
12007;BMP180;6062;47.294;12.182;2022-12-08T11:36:04;79115.00;;;24.60
12007;BMP180;6062;47.294;12.182;2022-12-08T11:38:32;79122.00;;;24.60
12007;BMP180;6062;47.294;12.182;2022-12-08T11:41:06;79119.00;;;24.60
12007;BMP180;6062;47.294;12.182;2022-12-08T11:43:35;79118.00;;;24.60
12007;BMP180;6062;47.294;12.182;2022-12-08T11:46:26;79111.00;;;24.50
12007;BMP180;6062;47.294;12.182;2022-12-08T11:49:01;79121.00;;;24.40
12007;BMP180;6062;47.294;12.182;2022-12-08T11:51:29;79110.00;;;24.40
12007;BMP180;6062;47.294;12.182;2022-12-08T11:54:17;79095.00;;;24.30
12007;BMP180;6062;47.294;12.182;2022-12-08T11:56:50;79107.00;;;24.30
12007;BMP180;6062;47.294;12.182;2022-12-08T11:59:31;79106.00;;;24.30
12007;BMP180;6062;47.294;12.182;2022-12-08T12:02:00;79104.00;;;24.20
12007;BMP180;6062;47.294;12.182;2022-12-08T12:04:53;79097.00;;;24.10
12007;BMP180;6062;47.294;12.182;2022-12-08T12:10:49;79085.00;;;24.00
12007;BMP180;6062;47.294;12.182;2022-12-08T12:13:53;79092.00;;;23.80
12007;BMP180;6062;47.294;12.182;2022-12-08T12:19:02;79090.00;;;23.70
12007;BMP180;6062;47.294;12.182;2022-12-08T12:21:39;79087.00;;;23.50
12007;BMP180;6062;47.294;12.182;2022-12-08T12:24:30;79082.00;;;23.30
12007;BMP180;6062;47.294;12.182;2022-12-08T12:27:26;79086.00;;;22.80
12007;BMP180;6062;47.294;12.182;2022-12-08T12:30:04;79080.00;;;22.40
12007;BMP180;6062;47.294;12.182;2022-12-08T12:32:50;79068.00;;;21.90
12007;BMP180;6062;47.294;12.182;2022-12-08T12:35:40;79080.00;;;21.40
12007;BMP180;6062;47.294;12.182;2022-12-08T12:38:19;79074.00;;;20.80
12007;BMP180;6062;47.294;12.182;2022-12-08T12:41:06;79074.00;;;20.10
12007;BMP180;6062;47.294;12.182;2022-12-08T12:43:36;79067.00;;;19.50
12007;BMP180;6062;47.294;12.182;2022-12-08T12:48:48;79064.00;;;18.10
12007;BMP180;6062;47.294;12.182;2022-12-08T12:54:27;79050.00;;;16.40
12007;BMP180;6062;47.294;12.182;2022-12-08T13:02:32;79058.00;;;14.10
12007;BMP180;6062;47.294;12.182;2022-12-08T13:05:15;79055.00;;;13.40
12007;BMP180;6062;47.294;12.182;2022-12-08T13:08:01;79056.00;;;12.80
12007;BMP180;6062;47.294;12.182;2022-12-08T13:10:48;79054.00;;;12.10
12007;BMP180;6062;47.294;12.182;2022-12-08T13:13:21;79044.00;;;11.40
12007;BMP180;6062;47.294;12.182;2022-12-08T13:15:50;79046.00;;;10.90
12007;BMP180;6062;47.294;12.182;2022-12-08T13:18:27;79046.00;;;10.30
12007;BMP180;6062;47.294;12.182;2022-12-08T13:21:09;79042.00;;;9.70
12007;BMP180;6062;47.294;12.182;2022-12-08T13:26:25;79050.00;;;8.60
12007;BMP180;6062;47.294;12.182;2022-12-08T13:31:44;79035.00;;;7.60
12007;BMP180;6062;47.294;12.182;2022-12-08T13:42:41;79036.00;;;6.00
12007;BMP180;6062;47.294;12.182;2022-12-08T13:47:55;79038.00;;;5.30
12007;BMP180;6062;47.294;12.182;2022-12-08T13:50:34;79042.00;;;5.00
12007;BMP180;6062;47.294;12.182;2022-12-08T13:53:32;79035.00;;;4.70
12007;BMP180;6062;47.294;12.182;2022-12-08T13:56:02;79035.00;;;4.40
12007;BMP180;6062;47.294;12.182;2022-12-08T13:58:32;79041.00;;;4.20
12007;BMP180;6062;47.294;12.182;2022-12-08T14:03:56;79034.00;;;3.90
12007;BMP180;6062;47.294;12.182;2022-12-08T14:06:34;79046.00;;;3.70
12007;BMP180;6062;47.294;12.182;2022-12-08T14:09:05;79039.00;;;3.50
12007;BMP180;6062;47.294;12.182;2022-12-08T14:11:45;79050.00;;;3.40
12007;BMP180;6062;47.294;12.182;2022-12-08T14:14:28;79049.00;;;3.20
12007;BMP180;6062;47.294;12.182;2022-12-08T14:17:01;79043.00;;;3.10
12007;BMP180;6062;47.294;12.182;2022-12-08T14:19:31;79056.00;;;2.90
12007;BMP180;6062;47.294;12.182;2022-12-08T14:22:08;79046.00;;;2.90
12007;BMP180;6062;47.294;12.182;2022-12-08T14:24:35;79065.00;;;2.80
12007;BMP180;6062;47.294;12.182;2022-12-08T14:27:07;79042.00;;;2.70
12007;BMP180;6062;47.294;12.182;2022-12-08T14:29:41;79049.00;;;2.60
12007;BMP180;6062;47.294;12.182;2022-12-08T14:32:32;79052.00;;;2.50
12007;BMP180;6062;47.294;12.182;2022-12-08T14:35:22;79055.00;;;2.50
12007;BMP180;6062;47.294;12.182;2022-12-08T14:37:53;79056.00;;;2.40
12007;BMP180;6062;47.294;12.182;2022-12-08T14:40:37;79054.00;;;2.30
12007;BMP180;6062;47.294;12.182;2022-12-08T14:43:11;79057.00;;;2.20
12007;BMP180;6062;47.294;12.182;2022-12-08T14:48:25;79071.00;;;2.10
12007;BMP180;6062;47.294;12.182;2022-12-08T14:54:04;79076.00;;;2.00
12007;BMP180;6062;47.294;12.182;2022-12-08T14:56:39;79064.00;;;1.90
12007;BMP180;6062;47.294;12.182;2022-12-08T14:59:14;79072.00;;;1.80
12007;BMP180;6062;47.294;12.182;2022-12-08T15:01:42;79073.00;;;1.80
12007;BMP180;6062;47.294;12.182;2022-12-08T15:04:17;79080.00;;;1.80
12007;BMP180;6062;47.294;12.182;2022-12-08T15:07:15;79074.00;;;1.80
12007;BMP180;6062;47.294;12.182;2022-12-08T15:12:34;79068.00;;;1.70
12007;BMP180;6062;47.294;12.182;2022-12-08T15:17:43;79065.00;;;1.60
12007;BMP180;6062;47.294;12.182;2022-12-08T15:22:52;79069.00;;;1.60
12007;BMP180;6062;47.294;12.182;2022-12-08T15:25:18;79064.00;;;1.50
12007;BMP180;6062;47.294;12.182;2022-12-08T15:27:44;79063.00;;;1.50
12007;BMP180;6062;47.294;12.182;2022-12-08T15:30:16;79065.00;;;1.40
12007;BMP180;6062;47.294;12.182;2022-12-08T15:32:43;79072.00;;;1.40
12007;BMP180;6062;47.294;12.182;2022-12-08T15:35:15;79072.00;;;1.30
12007;BMP180;6062;47.294;12.182;2022-12-08T15:37:41;79079.00;;;1.20
12007;BMP180;6062;47.294;12.182;2022-12-08T15:40:16;79082.00;;;1.20
12007;BMP180;6062;47.294;12.182;2022-12-08T15:42:42;79086.00;;;1.10
12007;BMP180;6062;47.294;12.182;2022-12-08T15:45:15;79086.00;;;1.10
12007;BMP180;6062;47.294;12.182;2022-12-08T15:47:43;79074.00;;;1.10
12007;BMP180;6062;47.294;12.182;2022-12-08T15:50:18;79077.00;;;1.00
12007;BMP180;6062;47.294;12.182;2022-12-08T15:52:45;79077.00;;;0.90
12007;BMP180;6062;47.294;12.182;2022-12-08T15:55:13;79075.00;;;0.90
12007;BMP180;6062;47.294;12.182;2022-12-08T15:57:42;79073.00;;;0.80
12007;BMP180;6062;47.294;12.182;2022-12-08T16:02:53;79072.00;;;0.60
12007;BMP180;6062;47.294;12.182;2022-12-08T16:05:22;79083.00;;;0.50
12007;BMP180;6062;47.294;12.182;2022-12-08T16:07:48;79063.00;;;0.50
12007;BMP180;6062;47.294;12.182;2022-12-08T16:10:18;79073.00;;;0.30
12007;BMP180;6062;47.294;12.182;2022-12-08T16:12:44;79077.00;;;0.30
12007;BMP180;6062;47.294;12.182;2022-12-08T16:15:30;79079.00;;;0.20
12007;BMP180;6062;47.294;12.182;2022-12-08T16:17:58;79080.00;;;0.10